Time;durP1;ratioP1;P1;durP2;ratioP2;P2;SDS_P1;SDS_P2;PMS_P1;PMS_P2;Temp;Humidity;BMP_temperature;BMP_pressure;BME280_temperature;BME280_humidity;BME280_pressure;Samples;Min_cycle;Max_cycle;Signal;HPM_P1;HPM_P2
2024/01/17 00:00:10;;;;;;;3.63;2.50;;;;;;;;;;4987118;28;20172;-76
2024/01/17 00:02:36;;;;;;;5.23;3.20;;;;;;;;;;4985968;28;20194;-76
2024/01/17 00:05:01;;;;;;;3.17;2.40;;;;;;;;;;4985519;28;20271;-76
2024/01/17 00:07:27;;;;;;;3.87;2.90;;;;;;;;;;4988850;28;20184;-76
2024/01/17 00:09:52;;;;;;;4.63;2.73;;;;;;;;;;4984348;28;20235;-76
2024/01/17 00:12:17;;;;;;;5.40;3.20;;;;;;;;;;4987221;28;20229;-76
2024/01/17 00:14:42;;;;;;;5.23;3.37;;;;;;;;;;4987462;28;20184;-76
2024/01/17 00:17:08;;;;;;;6.73;3.27;;;;;;;;;;4989090;28;20251;-76
2024/01/17 00:19:33;;;;;;;4.40;3.50;;;;;;;;;;4991043;28;20212;-76
2024/01/17 00:21:58;;;;;;;3.93;3.00;;;;;;;;;;4991840;28;20176;-76
2024/01/17 00:24:24;;;;;;;5.40;2.73;;;;;;;;;;5009822;28;20199;-76
2024/01/17 00:26:49;;;;;;;5.97;3.80;;;;;;;;;;4990663;28;20204;-76
2024/01/17 00:29:15;;;;;;;10.50;4.83;;;;;;;;;;4992078;28;20169;-76
2024/01/17 00:31:41;;;;;;;8.93;4.80;;;;;;;;;;4989875;28;20268;-76
2024/01/17 00:34:06;;;;;;;3.80;2.90;;;;;;;;;;4993298;28;20253;-76
2024/01/17 00:36:31;;;;;;;6.93;4.00;;;;;;;;;;4991524;28;20204;-76
2024/01/17 00:38:56;;;;;;;5.60;3.87;;;;;;;;;;4990023;28;20248;-76
2024/01/17 00:41:21;;;;;;;4.17;2.73;;;;;;;;;;4988226;28;20178;-76
2024/01/17 00:43:47;;;;;;;3.47;2.50;;;;;;;;;;4988265;28;20180;-76
2024/01/17 00:46:12;;;;;;;3.23;2.63;;;;;;;;;;4987449;28;20177;-76
2024/01/17 00:48:37;;;;;;;3.57;3.00;;;;;;;;;;4984672;28;20206;-76
2024/01/17 00:51:02;;;;;;;6.13;2.73;;;;;;;;;;4991200;28;20221;-76
2024/01/17 00:53:29;;;;;;;6.33;3.00;;;;;;;;;;4992116;28;20183;-75
2024/01/17 00:55:55;;;;;;;6.00;4.30;;;;;;;;;;4989577;28;20196;-76
2024/01/17 00:58:20;;;;;;;5.87;3.90;;;;;;;;;;4984933;28;20178;-76
2024/01/17 01:00:46;;;;;;;6.83;3.30;;;;;;;;;;4993536;28;20176;-76
2024/01/17 01:03:11;;;;;;;5.30;4.00;;;;;;;;;;5002728;28;20180;-76
2024/01/17 01:05:36;;;;;;;5.47;2.73;;;;;;;;;;4991444;28;20192;-76
2024/01/17 01:08:01;;;;;;;4.73;2.83;;;;;;;;;;4991606;28;20267;-76
2024/01/17 01:10:27;;;;;;;2.27;1.73;;;;;;;;;;4989976;28;20181;-76
2024/01/17 01:12:52;;;;;;;1.90;1.60;;;;;;;;;;4992379;28;20192;-76
2024/01/17 01:15:17;;;;;;;3.43;2.43;;;;;;;;;;4994367;28;20211;-76
2024/01/17 01:17:42;;;;;;;3.30;2.27;;;;;;;;;;4992529;28;20252;-76
2024/01/17 01:20:08;;;;;;;5.27;3.47;;;;;;;;;;4987474;28;20169;-76
2024/01/17 01:22:33;;;;;;;8.37;4.37;;;;;;;;;;5002605;28;20169;-76
2024/01/17 01:24:59;;;;;;;3.73;2.73;;;;;;;;;;5004581;28;20260;-76
2024/01/17 01:27:24;;;;;;;3.63;2.47;;;;;;;;;;4986049;28;20185;-76
2024/01/17 01:29:49;;;;;;;4.00;2.33;;;;;;;;;;4988322;28;20164;-76
2024/01/17 01:32:14;;;;;;;3.00;2.17;;;;;;;;;;4989062;28;20168;-76
2024/01/17 01:34:39;;;;;;;2.87;2.17;;;;;;;;;;4988560;28;20180;-76
2024/01/17 01:37:05;;;;;;;5.63;2.23;;;;;;;;;;4989679;28;20214;-76
2024/01/17 01:39:30;;;;;;;3.77;2.47;;;;;;;;;;4986283;28;20237;-76
2024/01/17 01:41:55;;;;;;;1.97;1.40;;;;;;;;;;4992829;28;20174;-76
2024/01/17 01:44:21;;;;;;;4.90;2.40;;;;;;;;;;4985164;28;20221;-76
2024/01/17 01:46:47;;;;;;;4.47;2.50;;;;;;;;;;5004967;28;20195;-76
2024/01/17 01:49:16;;;;;;;3.13;2.00;;;;;;;;;;4990204;28;20272;-76
2024/01/17 01:51:44;;;;;;;3.00;2.07;;;;;;;;;;4987516;28;20176;-76
2024/01/17 01:54:09;;;;;;;2.53;2.00;;;;;;;;;;4984928;28;20176;-76
2024/01/17 01:56:35;;;;;;;3.37;2.10;;;;;;;;;;4991449;28;20197;-76
2024/01/17 01:59:01;;;;;;;3.37;2.60;;;;;;;;;;4991264;28;20169;-76
2024/01/17 02:01:26;;;;;;;3.53;2.10;;;;;;;;;;4987993;28;20180;-76
2024/01/17 02:03:52;;;;;;;5.63;2.50;;;;;;;;;;4990226;28;20172;-76
2024/01/17 02:06:18;;;;;;;3.93;1.90;;;;;;;;;;5003872;28;20188;-76
2024/01/17 02:08:43;;;;;;;3.50;2.60;;;;;;;;;;4987435;28;20185;-76
2024/01/17 02:11:08;;;;;;;2.33;1.87;;;;;;;;;;4983210;28;20210;-76
2024/01/17 02:13:33;;;;;;;2.20;1.93;;;;;;;;;;4987358;28;20188;-81
2024/01/17 02:15:59;;;;;;;1.67;1.50;;;;;;;;;;4990674;28;20216;-77
2024/01/17 02:18:24;;;;;;;2.30;1.70;;;;;;;;;;5001726;28;20185;-76
2024/01/17 02:20:50;;;;;;;1.70;1.60;;;;;;;;;;4991896;28;20179;-76
2024/01/17 02:23:25;;;;;;;1.83;1.63;;;;;;;;;;4988572;28;20240;-76
2024/01/17 02:25:50;;;;;;;3.67;1.80;;;;;;;;;;4985023;28;20180;-76
2024/01/17 02:28:16;;;;;;;2.03;1.63;;;;;;;;;;4989332;28;20181;-77
2024/01/17 02:30:41;;;;;;;2.07;1.70;;;;;;;;;;4988923;28;20195;-76
2024/01/17 02:33:06;;;;;;;2.40;1.63;;;;;;;;;;4988819;28;20263;-76
2024/01/17 02:35:31;;;;;;;3.90;1.97;;;;;;;;;;4987102;28;20205;-76
2024/01/17 02:37:57;;;;;;;1.50;1.40;;;;;;;;;;5002858;28;20200;-77
2024/01/17 02:40:22;;;;;;;1.73;1.63;;;;;;;;;;4990728;28;20177;-76
2024/01/17 02:42:47;;;;;;;3.73;1.80;;;;;;;;;;4988933;28;20183;-76
2024/01/17 02:45:13;;;;;;;1.50;1.40;;;;;;;;;;4987049;28;20234;-76
2024/01/17 02:47:38;;;;;;;3.60;2.27;;;;;;;;;;4991756;28;20176;-77
2024/01/17 02:50:03;;;;;;;1.93;1.60;;;;;;;;;;4987891;28;20185;-76
2024/01/17 02:52:29;;;;;;;2.47;1.80;;;;;;;;;;4988951;28;20173;-76
2024/01/17 02:54:54;;;;;;;1.90;1.60;;;;;;;;;;4987520;28;20177;-77
2024/01/17 02:57:20;;;;;;;2.27;1.90;;;;;;;;;;4990706;28;20228;-76
2024/01/17 02:59:45;;;;;;;2.20;1.73;;;;;;;;;;4990916;28;20204;-77
2024/01/17 03:02:11;;;;;;;2.53;2.17;;;;;;;;;;4988946;28;20275;-76
2024/01/17 03:04:36;;;;;;;2.37;1.90;;;;;;;;;;4989455;28;20173;-77
2024/01/17 03:07:01;;;;;;;1.80;1.70;;;;;;;;;;4990917;28;20169;-76
2024/01/17 03:09:26;;;;;;;1.80;1.70;;;;;;;;;;4989473;28;20184;-77
2024/01/17 03:11:51;;;;;;;3.03;2.10;;;;;;;;;;4985802;28;20206;-77
2024/01/17 03:14:17;;;;;;;1.93;1.73;;;;;;;;;;4989134;28;20176;-77
2024/01/17 03:16:42;;;;;;;2.37;1.70;;;;;;;;;;4990136;28;20264;-77
2024/01/17 03:19:08;;;;;;;2.17;1.70;;;;;;;;;;4988629;28;20290;-77
2024/01/17 03:21:33;;;;;;;1.60;1.50;;;;;;;;;;4986930;28;20216;-77
2024/01/17 03:24:00;;;;;;;3.20;2.30;;;;;;;;;;4988597;28;20195;-77
2024/01/17 03:26:25;;;;;;;2.80;2.23;;;;;;;;;;4986033;28;20188;-77
2024/01/17 03:28:50;;;;;;;3.03;2.40;;;;;;;;;;5005627;28;20183;-77
2024/01/17 03:31:16;;;;;;;3.53;2.77;;;;;;;;;;4989994;28;20208;-77
2024/01/17 03:33:41;;;;;;;3.87;2.40;;;;;;;;;;4987357;28;20188;-77
2024/01/17 03:36:06;;;;;;;3.60;2.50;;;;;;;;;;4980389;28;20209;-78
2024/01/17 03:38:32;;;;;;;3.70;2.60;;;;;;;;;;4985649;28;20169;-77
2024/01/17 03:41:00;;;;;;;4.63;2.77;;;;;;;;;;4987367;28;20196;-77
2024/01/17 03:43:25;;;;;;;2.73;2.43;;;;;;;;;;4987678;28;20181;-76
2024/01/17 03:45:53;;;;;;;2.97;2.60;;;;;;;;;;4990719;28;20185;-77
2024/01/17 03:48:18;;;;;;;3.03;2.70;;;;;;;;;;4990102;28;20185;-78
2024/01/17 03:50:43;;;;;;;4.93;3.10;;;;;;;;;;4988945;28;20189;-77
2024/01/17 03:53:09;;;;;;;5.20;3.27;;;;;;;;;;4985367;28;20268;-77
2024/01/17 03:55:34;;;;;;;5.77;4.03;;;;;;;;;;4983732;28;20210;-77
2024/01/17 03:57:59;;;;;;;6.53;3.93;;;;;;;;;;4989478;28;20169;-78
2024/01/17 04:00:24;;;;;;;6.10;4.27;;;;;;;;;;4988753;28;20223;-77
2024/01/17 04:02:49;;;;;;;6.37;4.27;;;;;;;;;;4984999;28;20275;-78
2024/01/17 04:05:19;;;;;;;7.37;5.10;;;;;;;;;;4987766;28;20181;-78
2024/01/17 04:07:44;;;;;;;9.13;4.83;;;;;;;;;;4979769;28;20193;-77
2024/01/17 04:10:09;;;;;;;10.33;5.30;;;;;;;;;;4985690;28;20179;-77
2024/01/17 04:12:35;;;;;;;9.70;5.43;;;;;;;;;;4987395;28;20197;-77
2024/01/17 04:15:00;;;;;;;8.00;4.87;;;;;;;;;;4986158;28;20239;-77
2024/01/17 04:17:25;;;;;;;7.93;4.97;;;;;;;;;;4987952;28;20312;-78
2024/01/17 04:19:50;;;;;;;8.87;5.13;;;;;;;;;;4988471;28;20240;-77
2024/01/17 04:22:15;;;;;;;13.13;5.10;;;;;;;;;;4989690;28;20177;-78
2024/01/17 04:24:41;;;;;;;8.50;4.87;;;;;;;;;;4988022;28;20239;-78
2024/01/17 04:27:06;;;;;;;8.03;4.60;;;;;;;;;;4989627;28;20605;-78
2024/01/17 04:29:31;;;;;;;11.73;5.07;;;;;;;;;;4985871;28;20216;-77
2024/01/17 04:31:57;;;;;;;9.13;4.57;;;;;;;;;;4986508;28;20262;-78
2024/01/17 04:34:22;;;;;;;9.13;5.03;;;;;;;;;;4986748;28;20188;-78
2024/01/17 04:36:47;;;;;;;9.47;5.10;;;;;;;;;;4986302;28;20211;-78
2024/01/17 04:39:14;;;;;;;11.00;5.87;;;;;;;;;;4992511;28;20193;-77
2024/01/17 04:41:39;;;;;;;12.17;5.43;;;;;;;;;;4988203;28;20176;-78
2024/01/17 04:44:05;;;;;;;14.87;6.90;;;;;;;;;;4990089;28;20172;-78
2024/01/17 04:46:30;;;;;;;20.70;8.90;;;;;;;;;;4988509;28;20276;-78
2024/01/17 04:48:55;;;;;;;31.77;12.60;;;;;;;;;;4988261;28;20188;-78
2024/01/17 04:51:25;;;;;;;46.77;16.93;;;;;;;;;;4986877;28;20215;-78
2024/01/17 04:53:51;;;;;;;42.00;14.33;;;;;;;;;;4982639;28;20186;-79
2024/01/17 04:56:16;;;;;;;43.53;18.47;;;;;;;;;;4989404;28;20204;-78
2024/01/17 04:58:41;;;;;;;53.10;18.87;;;;;;;;;;4985059;28;20175;-78
2024/01/17 05:01:07;;;;;;;50.20;17.80;;;;;;;;;;4983664;28;20181;-78
2024/01/17 05:03:33;;;;;;;56.23;20.20;;;;;;;;;;4985727;28;20181;-78
2024/01/17 05:05:58;;;;;;;53.47;20.13;;;;;;;;;;4992568;28;20209;-79
2024/01/17 05:08:24;;;;;;;59.53;21.40;;;;;;;;;;4992015;28;20194;-77
2024/01/17 05:10:49;;;;;;;67.63;23.43;;;;;;;;;;4990261;28;20193;-78
2024/01/17 05:13:14;;;;;;;75.63;24.37;;;;;;;;;;5013380;28;20269;-79
2024/01/17 05:15:40;;;;;;;77.90;27.47;;;;;;;;;;4987047;28;20232;-79
2024/01/17 05:18:05;;;;;;;76.80;25.50;;;;;;;;;;4992381;28;20185;-76
2024/01/17 05:20:31;;;;;;;81.77;29.20;;;;;;;;;;4991767;28;20211;-77
2024/01/17 05:22:56;;;;;;;96.27;30.20;;;;;;;;;;4991926;28;20192;-79
2024/01/17 05:25:21;;;;;;;102.17;32.67;;;;;;;;;;4990383;28;20192;-78
2024/01/17 05:27:52;;;;;;;124.07;45.43;;;;;;;;;;4992028;28;20184;-79
2024/01/17 05:30:19;;;;;;;125.17;43.90;;;;;;;;;;4988429;28;20197;-79
2024/01/17 05:32:44;;;;;;;116.27;39.27;;;;;;;;;;4990238;28;20267;-80
2024/01/17 05:35:09;;;;;;;118.43;37.27;;;;;;;;;;4984421;28;20311;-76
2024/01/17 05:37:35;;;;;;;121.30;40.63;;;;;;;;;;5003028;28;20174;-79
2024/01/17 05:40:00;;;;;;;131.67;40.63;;;;;;;;;;4985074;28;20175;-79
2024/01/17 05:42:25;;;;;;;120.70;37.97;;;;;;;;;;4989861;28;20184;-79
2024/01/17 05:44:51;;;;;;;122.13;36.77;;;;;;;;;;4986554;28;20186;-80
2024/01/17 05:47:16;;;;;;;107.57;37.80;;;;;;;;;;4985648;28;20186;-79
2024/01/17 05:49:42;;;;;;;111.53;38.47;;;;;;;;;;4987861;28;20269;-79
2024/01/17 05:52:07;;;;;;;110.37;38.40;;;;;;;;;;4990581;28;20197;-80
2024/01/17 05:54:32;;;;;;;116.13;36.03;;;;;;;;;;4991334;28;20205;-79
2024/01/17 05:56:58;;;;;;;124.13;40.07;;;;;;;;;;4987130;28;20235;-78
2024/01/17 05:59:24;;;;;;;118.03;40.07;;;;;;;;;;4987584;28;20224;-80
2024/01/17 06:01:49;;;;;;;112.03;36.93;;;;;;;;;;4982486;28;20194;-77
2024/01/17 06:04:15;;;;;;;110.20;37.40;;;;;;;;;;4988576;28;20178;-79
2024/01/17 06:06:40;;;;;;;117.43;37.03;;;;;;;;;;4992511;28;20198;-79
2024/01/17 06:09:07;;;;;;;135.97;38.83;;;;;;;;;;4984345;28;20177;-80
2024/01/17 06:11:32;;;;;;;126.77;45.30;;;;;;;;;;4987735;28;20226;-77
2024/01/17 06:13:59;;;;;;;130.27;40.03;;;;;;;;;;4983239;28;20177;-80
2024/01/17 06:16:24;;;;;;;131.53;41.20;;;;;;;;;;4991483;28;20236;-78
2024/01/17 06:18:50;;;;;;;128.00;38.90;;;;;;;;;;4990662;28;20192;-80
2024/01/17 06:21:15;;;;;;;121.37;36.70;;;;;;;;;;4997583;28;20270;-80
2024/01/17 06:23:40;;;;;;;120.93;35.73;;;;;;;;;;4989029;28;20179;-78
2024/01/17 06:26:07;;;;;;;125.43;39.07;;;;;;;;;;4990731;28;20174;-79
2024/01/17 06:28:34;;;;;;;113.63;36.43;;;;;;;;;;4991511;28;20176;-79
2024/01/17 06:31:00;;;;;;;123.83;39.50;;;;;;;;;;4991859;28;20181;-78
2024/01/17 06:33:25;;;;;;;111.73;35.23;;;;;;;;;;4989755;28;20182;-79
2024/01/17 06:35:50;;;;;;;119.83;35.63;;;;;;;;;;4998577;28;20218;-79
2024/01/17 06:38:15;;;;;;;134.13;42.67;;;;;;;;;;4994087;28;20173;-79
2024/01/17 06:40:40;;;;;;;119.37;39.60;;;;;;;;;;5002301;28;20183;-79
2024/01/17 06:43:06;;;;;;;134.43;44.00;;;;;;;;;;4991140;28;20187;-79
2024/01/17 06:45:31;;;;;;;140.80;44.00;;;;;;;;;;4985860;28;20188;-79
2024/01/17 06:47:58;;;;;;;139.03;44.43;;;;;;;;;;4990431;28;20182;-80
2024/01/17 06:50:24;;;;;;;123.80;42.00;;;;;;;;;;4989171;28;20182;-79
2024/01/17 06:52:49;;;;;;;128.37;38.63;;;;;;;;;;4987312;28;20186;-79
2024/01/17 06:55:15;;;;;;;119.33;37.27;;;;;;;;;;4989691;28;20196;-80
2024/01/17 06:57:40;;;;;;;133.43;40.57;;;;;;;;;;4988514;28;20426;-79
2024/01/17 07:00:06;;;;;;;143.10;39.73;;;;;;;;;;4984915;28;20200;-78
2024/01/17 07:02:31;;;;;;;132.70;41.47;;;;;;;;;;4987522;28;20214;-79
2024/01/17 07:04:56;;;;;;;132.87;39.43;;;;;;;;;;4982324;28;20169;-79
2024/01/17 07:07:22;;;;;;;126.90;36.40;;;;;;;;;;4990856;28;20176;-79
2024/01/17 07:09:48;;;;;;;123.93;38.53;;;;;;;;;;4986294;28;20186;-79
2024/01/17 07:12:13;;;;;;;127.90;40.07;;;;;;;;;;4981387;28;20201;-77
2024/01/17 07:14:38;;;;;;;129.10;38.57;;;;;;;;;;4981931;28;20183;-80
2024/01/17 07:17:03;;;;;;;141.97;41.70;;;;;;;;;;4982989;28;20275;-79
2024/01/17 07:19:29;;;;;;;134.27;44.57;;;;;;;;;;4982510;28;20173;-79
2024/01/17 07:21:54;;;;;;;138.07;38.63;;;;;;;;;;4990176;28;20188;-79
2024/01/17 07:24:20;;;;;;;144.93;41.53;;;;;;;;;;4989351;28;20191;-79
2024/01/17 07:26:46;;;;;;;125.57;37.40;;;;;;;;;;4987616;28;20184;-79
2024/01/17 07:29:11;;;;;;;126.27;41.87;;;;;;;;;;4996972;28;20175;-79
2024/01/17 07:31:36;;;;;;;132.87;40.27;;;;;;;;;;4983407;28;20182;-78
2024/01/17 07:34:02;;;;;;;138.73;37.13;;;;;;;;;;4982944;28;20190;-79
2024/01/17 07:36:27;;;;;;;128.10;38.57;;;;;;;;;;4980781;28;20211;-79
2024/01/17 07:38:52;;;;;;;129.37;37.10;;;;;;;;;;4986999;28;20172;-78
2024/01/17 07:41:18;;;;;;;116.53;37.37;;;;;;;;;;4987629;28;20187;-78
2024/01/17 07:43:43;;;;;;;124.43;38.53;;;;;;;;;;4988422;28;20198;-77
2024/01/17 07:46:08;;;;;;;130.50;35.27;;;;;;;;;;4987651;28;20187;-78
2024/01/17 07:48:34;;;;;;;117.40;31.40;;;;;;;;;;4989262;28;20258;-78
2024/01/17 07:50:59;;;;;;;113.83;30.67;;;;;;;;;;4989873;28;20176;-77
2024/01/17 07:53:26;;;;;;;108.43;31.47;;;;;;;;;;4988892;28;20180;-76
2024/01/17 07:55:52;;;;;;;112.07;30.97;;;;;;;;;;4989633;28;20195;-76
2024/01/17 07:58:17;;;;;;;106.87;30.53;;;;;;;;;;4986440;28;20184;-77
2024/01/17 08:00:43;;;;;;;98.63;31.03;;;;;;;;;;4990209;28;20202;-76
2024/01/17 08:03:08;;;;;;;108.70;32.50;;;;;;;;;;4990818;28;20229;-77
2024/01/17 08:05:33;;;;;;;107.57;31.60;;;;;;;;;;4978909;28;20176;-77
2024/01/17 08:07:59;;;;;;;97.33;31.77;;;;;;;;;;4990426;28;20177;-78
2024/01/17 08:10:24;;;;;;;106.00;31.20;;;;;;;;;;4998983;28;20183;-78
2024/01/17 08:12:49;;;;;;;104.90;35.33;;;;;;;;;;4985602;28;20192;-78
2024/01/17 08:15:15;;;;;;;106.60;33.80;;;;;;;;;;4985042;28;20271;-78
2024/01/17 08:17:41;;;;;;;96.47;33.17;;;;;;;;;;4984561;28;20180;-79
2024/01/17 08:20:07;;;;;;;101.03;34.63;;;;;;;;;;4988284;28;20176;-79
2024/01/17 08:22:33;;;;;;;109.80;32.30;;;;;;;;;;4989031;28;20169;-77
2024/01/17 08:24:58;;;;;;;87.40;31.87;;;;;;;;;;4987670;28;20187;-78
2024/01/17 08:27:24;;;;;;;84.23;30.73;;;;;;;;;;4986036;28;20226;-78
2024/01/17 08:29:49;;;;;;;86.23;29.97;;;;;;;;;;4987011;28;20180;-79
2024/01/17 08:32:14;;;;;;;97.77;31.97;;;;;;;;;;4982721;28;20180;-79
2024/01/17 08:34:39;;;;;;;99.00;30.30;;;;;;;;;;4981461;28;20183;-79
2024/01/17 08:37:04;;;;;;;84.50;31.67;;;;;;;;;;4988240;28;20270;-79
2024/01/17 08:39:30;;;;;;;82.93;27.33;;;;;;;;;;4993871;28;20172;-79
2024/01/17 08:41:55;;;;;;;84.03;28.80;;;;;;;;;;4991799;28;20184;-79
2024/01/17 08:44:20;;;;;;;82.57;26.70;;;;;;;;;;4992593;28;20196;-79
2024/01/17 08:46:46;;;;;;;79.73;26.90;;;;;;;;;;4984230;28;20211;-79
2024/01/17 08:49:11;;;;;;;78.83;29.20;;;;;;;;;;4988580;28;20178;-79
2024/01/17 08:51:36;;;;;;;78.30;27.80;;;;;;;;;;4993646;28;20191;-80
2024/01/17 08:54:02;;;;;;;71.30;27.07;;;;;;;;;;4990303;28;20203;-79
2024/01/17 08:56:27;;;;;;;80.27;25.67;;;;;;;;;;4985209;28;20200;-78
2024/01/17 08:58:52;;;;;;;79.17;26.80;;;;;;;;;;4987083;28;20182;-79
2024/01/17 09:01:18;;;;;;;72.37;26.17;;;;;;;;;;4992085;28;20219;-79
2024/01/17 09:03:43;;;;;;;72.73;24.50;;;;;;;;;;4986760;28;20200;-79
2024/01/17 09:06:08;;;;;;;66.40;26.30;;;;;;;;;;4985586;28;20177;-79
2024/01/17 09:08:34;;;;;;;69.50;25.20;;;;;;;;;;4990587;28;20190;-79
2024/01/17 09:11:02;;;;;;;74.17;24.43;;;;;;;;;;4997146;28;20178;-79
2024/01/17 09:13:27;;;;;;;56.93;25.17;;;;;;;;;;4985567;28;20199;-79
2024/01/17 09:15:52;;;;;;;70.60;26.50;;;;;;;;;;4992497;28;20223;-80
2024/01/17 09:18:18;;;;;;;69.67;26.10;;;;;;;;;;4986278;28;20185;-79
2024/01/17 09:20:44;;;;;;;58.33;27.07;;;;;;;;;;4993925;28;20246;-80
2024/01/17 09:23:09;;;;;;;68.40;21.97;;;;;;;;;;4987896;28;20187;-79
2024/01/17 09:25:34;;;;;;;57.90;24.27;;;;;;;;;;4988368;28;20188;-79
2024/01/17 09:28:00;;;;;;;58.53;23.03;;;;;;;;;;4993814;28;20186;-80
2024/01/17 09:30:26;;;;;;;55.25;23.27;;;;;;;;;;4992569;28;20243;-79
2024/01/17 09:32:51;;;;;;;62.10;22.27;;;;;;;;;;4990189;28;20186;-80
2024/01/17 09:35:16;;;;;;;52.33;20.37;;;;;;;;;;4981840;28;20172;-79
2024/01/17 09:37:42;;;;;;;50.67;20.67;;;;;;;;;;4988288;28;20230;-79
2024/01/17 09:40:08;;;;;;;65.13;21.93;;;;;;;;;;4990752;28;20173;-79
2024/01/17 09:42:33;;;;;;;55.87;20.70;;;;;;;;;;4983372;28;20184;-80
2024/01/17 09:44:59;;;;;;;50.97;22.17;;;;;;;;;;4985399;28;20172;-78
2024/01/17 09:47:24;;;;;;;53.47;24.73;;;;;;;;;;4989549;28;20234;-79
2024/01/17 09:49:50;;;;;;;59.23;22.07;;;;;;;;;;4987069;28;20177;-80
2024/01/17 09:52:17;;;;;;;50.40;20.53;;;;;;;;;;4984231;28;20184;-79
2024/01/17 09:54:45;;;;;;;56.53;23.33;;;;;;;;;;4992064;28;20203;-79
2024/01/17 09:57:13;;;;;;;44.13;19.70;;;;;;;;;;4989376;28;20283;-80
2024/01/17 09:59:44;;;;;;;63.17;23.60;;;;;;;;;;4988332;28;20271;-79
2024/01/17 10:02:09;;;;;;;49.00;17.63;;;;;;;;;;4989270;28;20180;-80
2024/01/17 10:04:35;;;;;;;42.07;18.00;;;;;;;;;;4986926;28;20187;-79
2024/01/17 10:07:00;;;;;;;38.27;17.83;;;;;;;;;;4984254;28;20177;-80
2024/01/17 10:09:26;;;;;;;41.30;17.67;;;;;;;;;;4990319;28;20183;-79
2024/01/17 10:11:52;;;;;;;36.57;17.60;;;;;;;;;;4985694;28;20196;-80
2024/01/17 10:14:17;;;;;;;39.20;16.27;;;;;;;;;;4990814;28;20197;-76
2024/01/17 10:16:42;;;;;;;60.17;26.67;;;;;;;;;;4978580;28;20231;-80
2024/01/17 10:19:08;;;;;;;37.73;17.17;;;;;;;;;;4996334;28;20202;-80
2024/01/17 10:21:33;;;;;;;45.07;20.63;;;;;;;;;;4981809;28;20180;-79
2024/01/17 10:23:59;;;;;;;38.30;17.40;;;;;;;;;;4987708;28;20192;-79
2024/01/17 10:26:24;;;;;;;26.97;16.77;;;;;;;;;;4982753;28;20245;-79
2024/01/17 10:28:49;;;;;;;34.60;17.53;;;;;;;;;;4988804;28;20216;-80
2024/01/17 10:31:14;;;;;;;29.20;14.60;;;;;;;;;;4992403;28;20263;-79
2024/01/17 10:33:40;;;;;;;29.77;16.33;;;;;;;;;;4983980;28;20188;-80
2024/01/17 10:36:05;;;;;;;36.80;14.83;;;;;;;;;;4988051;28;20195;-79
2024/01/17 10:38:31;;;;;;;29.27;15.87;;;;;;;;;;4990945;28;20207;-79
2024/01/17 10:41:06;;;;;;;32.03;13.90;;;;;;;;;;4991729;28;20176;-80
2024/01/17 10:43:32;;;;;;;25.77;14.77;;;;;;;;;;4987103;28;20255;-78
2024/01/17 10:46:00;;;;;;;22.23;14.00;;;;;;;;;;5002524;28;20180;-79
2024/01/17 10:48:25;;;;;;;27.23;13.57;;;;;;;;;;4988129;28;20235;-80
2024/01/17 10:50:55;;;;;;;23.17;13.17;;;;;;;;;;5003707;28;20181;-80
2024/01/17 10:53:21;;;;;;;22.23;11.80;;;;;;;;;;4990266;28;20218;-79
2024/01/17 10:55:50;;;;;;;22.03;12.00;;;;;;;;;;4989468;28;20188;-80
2024/01/17 10:58:17;;;;;;;22.93;10.93;;;;;;;;;;4990927;28;20279;-79
2024/01/17 11:00:43;;;;;;;22.67;11.27;;;;;;;;;;4987797;28;20184;-79
2024/01/17 11:03:09;;;;;;;20.00;10.50;;;;;;;;;;4982229;28;20180;-80
2024/01/17 11:05:48;;;;;;;25.03;15.37;;;;;;;;;;4985757;28;20203;-80
2024/01/17 11:08:14;;;;;;;19.17;10.43;;;;;;;;;;5003483;28;20184;-78
2024/01/17 11:10:40;;;;;;;18.20;10.60;;;;;;;;;;4992864;28;20187;-80
2024/01/17 11:13:05;;;;;;;20.67;10.70;;;;;;;;;;4985279;28;20200;-81
2024/01/17 11:15:31;;;;;;;19.37;9.77;;;;;;;;;;4989161;28;20232;-80
2024/01/17 11:17:59;;;;;;;19.27;10.13;;;;;;;;;;5001723;28;20181;-80
2024/01/17 11:20:24;;;;;;;15.77;7.67;;;;;;;;;;4980363;28;20204;-79
2024/01/17 11:22:50;;;;;;;16.70;10.37;;;;;;;;;;4982499;28;20219;-80
2024/01/17 11:25:22;;;;;;;16.77;10.10;;;;;;;;;;4984412;28;20243;-79
2024/01/17 11:27:50;;;;;;;20.73;10.10;;;;;;;;;;4998593;28;20183;-80
2024/01/17 11:30:42;;;;;;;14.90;9.10;;;;;;;;;;4990009;28;20176;-78
2024/01/17 11:33:10;;;;;;;17.90;9.13;;;;;;;;;;4985377;28;20208;-78
2024/01/17 11:35:48;;;;;;;16.53;8.13;;;;;;;;;;4988601;28;20206;-79
2024/01/17 11:38:23;;;;;;;14.40;7.63;;;;;;;;;;4988070;28;20234;-79
2024/01/17 11:41:00;;;;;;;16.23;7.80;;;;;;;;;;4987432;28;20187;-79
2024/01/17 11:43:35;;;;;;;15.83;8.07;;;;;;;;;;4982920;28;20199;-79
2024/01/17 11:46:02;;;;;;;14.23;7.50;;;;;;;;;;4988691;28;20239;-78
2024/01/17 11:48:28;;;;;;;49.53;25.97;;;;;;;;;;4986869;28;20262;-78
2024/01/17 11:51:12;;;;;;;23.43;11.90;;;;;;;;;;4988420;28;20276;-77
2024/01/17 11:53:37;;;;;;;45.17;19.80;;;;;;;;;;4982216;28;20234;-77
2024/01/17 11:56:03;;;;;;;61.47;26.27;;;;;;;;;;4983466;28;20199;-77
2024/01/17 11:58:45;;;;;;;30.23;15.27;;;;;;;;;;4988282;28;20305;-76
2024/01/17 12:01:14;;;;;;;57.67;22.47;;;;;;;;;;4991354;28;20258;-76
2024/01/17 12:03:40;;;;;;;71.93;26.40;;;;;;;;;;4986660;28;20259;-76
2024/01/17 12:06:07;;;;;;;54.73;21.13;;;;;;;;;;4983693;28;20236;-76
2024/01/17 12:08:33;;;;;;;57.83;20.70;;;;;;;;;;5000945;28;20294;-76
2024/01/17 12:10:58;;;;;;;20.60;11.83;;;;;;;;;;4981714;28;20259;-77
2024/01/17 12:13:24;;;;;;;29.40;15.60;;;;;;;;;;4990985;28;20242;-75
2024/01/17 12:15:54;;;;;;;32.17;15.17;;;;;;;;;;4992747;28;20295;-77
2024/01/17 12:18:20;;;;;;;29.10;16.70;;;;;;;;;;4998338;28;20175;-76
2024/01/17 12:20:46;;;;;;;31.47;14.90;;;;;;;;;;5008575;28;20192;-76
2024/01/17 12:23:11;;;;;;;24.57;13.10;;;;;;;;;;5008418;28;20172;-77
2024/01/17 12:25:38;;;;;;;26.17;13.20;;;;;;;;;;4987514;28;20235;-77
2024/01/17 12:28:03;;;;;;;24.53;12.93;;;;;;;;;;4991002;28;20183;-77
2024/01/17 12:30:28;;;;;;;30.73;15.00;;;;;;;;;;4989210;28;20187;-77
2024/01/17 12:32:53;;;;;;;25.00;14.73;;;;;;;;;;4993436;28;20169;-77
2024/01/17 12:35:19;;;;;;;27.37;13.13;;;;;;;;;;4991299;28;20195;-77
2024/01/17 12:37:44;;;;;;;26.23;13.37;;;;;;;;;;4992659;28;20180;-77
2024/01/17 12:40:09;;;;;;;28.53;14.43;;;;;;;;;;5008717;28;20186;-78
2024/01/17 12:42:35;;;;;;;31.10;17.40;;;;;;;;;;4990518;28;20263;-77
2024/01/17 12:45:00;;;;;;;31.97;16.33;;;;;;;;;;4988054;28;20172;-77
2024/01/17 12:47:25;;;;;;;33.07;17.60;;;;;;;;;;4988083;28;20277;-77
2024/01/17 12:49:51;;;;;;;32.47;15.10;;;;;;;;;;5008543;28;20183;-77
2024/01/17 12:52:17;;;;;;;23.20;11.10;;;;;;;;;;4996928;28;20188;-76
2024/01/17 12:54:42;;;;;;;23.03;12.80;;;;;;;;;;4990596;28;20259;-77
2024/01/17 12:57:07;;;;;;;22.17;12.27;;;;;;;;;;4989351;28;20197;-77
2024/01/17 12:59:32;;;;;;;23.53;14.30;;;;;;;;;;4990311;28;20188;-76
2024/01/17 13:01:58;;;;;;;17.80;10.77;;;;;;;;;;4994241;28;20214;-77
2024/01/17 13:04:23;;;;;;;12.27;6.47;;;;;;;;;;4987742;28;20212;-76
2024/01/17 13:06:50;;;;;;;15.17;10.10;;;;;;;;;;4992745;28;20176;-76
2024/01/17 13:09:17;;;;;;;15.10;10.40;;;;;;;;;;4986998;28;20179;-76
2024/01/17 13:11:47;;;;;;;17.77;10.53;;;;;;;;;;4979274;28;20192;-76
2024/01/17 13:14:22;;;;;;;18.27;9.33;;;;;;;;;;4988939;28;20184;-76
2024/01/17 13:16:47;;;;;;;19.70;9.17;;;;;;;;;;4991757;28;20459;-76
2024/01/17 13:19:13;;;;;;;22.87;12.33;;;;;;;;;;4988012;28;20203;-76
2024/01/17 13:21:40;;;;;;;42.33;23.23;;;;;;;;;;4989479;28;20180;-75
2024/01/17 13:24:05;;;;;;;52.03;32.17;;;;;;;;;;4993024;28;20176;-76
2024/01/17 13:26:33;;;;;;;20.00;12.17;;;;;;;;;;4997408;28;20183;-75
2024/01/17 13:28:58;;;;;;;31.27;13.27;;;;;;;;;;4985458;28;20184;-76
2024/01/17 13:31:23;;;;;;;24.83;11.87;;;;;;;;;;4992429;28;20180;-76
2024/01/17 13:33:50;;;;;;;27.87;21.77;;;;;;;;;;4984539;28;20296;-76
2024/01/17 13:36:15;;;;;;;9.17;7.03;;;;;;;;;;4990818;28;20249;-76
2024/01/17 13:38:41;;;;;;;11.40;10.03;;;;;;;;;;4992599;28;20255;-76
2024/01/17 13:41:07;;;;;;;12.97;7.60;;;;;;;;;;4993011;28;20176;-75
2024/01/17 13:43:32;;;;;;;15.13;8.83;;;;;;;;;;4990341;28;20256;-75
2024/01/17 13:45:57;;;;;;;11.90;7.40;;;;;;;;;;4983877;28;20174;-76
2024/01/17 13:48:23;;;;;;;11.67;7.30;;;;;;;;;;4990834;28;20586;-76
2024/01/17 13:50:48;;;;;;;16.87;8.43;;;;;;;;;;4987343;28;20180;-75
2024/01/17 13:53:28;;;;;;;28.37;13.03;;;;;;;;;;4988855;28;20183;-75
2024/01/17 13:55:54;;;;;;;15.57;8.77;;;;;;;;;;4987073;28;20192;-75
2024/01/17 13:58:22;;;;;;;14.90;9.70;;;;;;;;;;4986916;28;20257;-75
2024/01/17 14:00:48;;;;;;;15.73;9.30;;;;;;;;;;4987293;28;21551;-74
2024/01/17 14:03:13;;;;;;;15.97;10.37;;;;;;;;;;4992405;28;20630;-75
2024/01/17 14:05:38;;;;;;;19.90;11.77;;;;;;;;;;4989809;28;20281;-75
2024/01/17 14:08:04;;;;;;;17.67;11.93;;;;;;;;;;4989603;28;20188;-75
2024/01/17 14:10:29;;;;;;;20.03;14.33;;;;;;;;;;4987117;28;20192;-75
2024/01/17 14:12:54;;;;;;;15.30;9.80;;;;;;;;;;4992442;28;20224;-75
2024/01/17 14:15:19;;;;;;;13.40;8.93;;;;;;;;;;4989738;28;20177;-75